createdAt,value
2023-04-13T00:09:50.075Z,966.2
2023-04-13T00:29:02.055Z,966.2
2023-04-13T00:48:14.179Z,966
2023-04-13T01:07:26.949Z,965.8
2023-04-13T01:26:39.227Z,965.7
2023-04-13T01:45:52.683Z,965.6
2023-04-13T02:05:07.826Z,965.6
2023-04-13T02:24:15.563Z,965.6
2023-04-13T02:43:28.180Z,965.6
2023-04-13T03:02:41.143Z,965.7
2023-04-13T03:21:51.721Z,965.6
2023-04-13T03:41:02.613Z,965.6
2023-04-13T04:00:14.960Z,965.6
2023-04-13T04:19:26.597Z,965.9
2023-04-13T04:38:38.816Z,966
2023-04-13T04:57:51.427Z,966
2023-04-13T05:17:03.518Z,966.4
2023-04-13T05:36:15.300Z,966.7
2023-04-13T05:55:28.511Z,967
2023-04-13T06:14:41.793Z,967.3
2023-04-13T06:33:55.519Z,967.5
2023-04-13T06:53:05.584Z,967.8
2023-04-13T07:12:18.586Z,968.1
2023-04-13T07:31:30.832Z,968.5
2023-04-13T07:50:43.851Z,968.7
2023-04-13T08:09:58.652Z,968.9
2023-04-13T08:29:05.865Z,969.1
2023-04-13T08:48:16.796Z,969.3
2023-04-13T09:07:30.594Z,969.5
2023-04-13T09:26:40.818Z,969.7
2023-04-13T09:45:53.762Z,970
2023-04-13T10:05:07.948Z,970.2
2023-04-13T10:24:26.820Z,970.2
2023-04-13T10:43:36.933Z,970.3
2023-04-13T11:02:49.095Z,970.5
2023-04-13T11:21:50.190Z,970.7
2023-04-13T11:41:17.876Z,970.8
2023-04-13T12:00:23.549Z,970.7
2023-04-13T12:19:35.836Z,970.8
2023-04-13T12:38:45.513Z,971
2023-04-13T12:57:55.883Z,971.2
2023-04-13T13:17:12.423Z,971.3
2023-04-13T13:36:27.470Z,971.4
2023-04-13T13:55:39.519Z,971.4
2023-04-13T14:14:47.244Z,971.5
2023-04-13T14:33:57.029Z,971.5
2023-04-13T14:53:11.747Z,971.6
2023-04-13T15:12:27.154Z,971.6
2023-04-13T15:31:38.985Z,971.9
2023-04-13T15:50:50.771Z,972.1
2023-04-13T16:10:04.756Z,972.3
2023-04-13T16:29:13.962Z,972.5
2023-04-13T16:48:26.681Z,972.7
2023-04-13T17:07:38.570Z,972.8
2023-04-13T17:26:50.408Z,972.8
2023-04-13T17:45:58.414Z,973.2
2023-04-13T18:05:09.013Z,973.6
2023-04-13T18:24:19.948Z,973.7
2023-04-13T18:43:28.664Z,974
2023-04-13T19:02:42.321Z,974.2
2023-04-13T19:21:51.547Z,974.3
2023-04-13T19:41:01.856Z,974.4
2023-04-13T20:00:14.881Z,974.7
2023-04-13T20:19:24.577Z,974.7
2023-04-13T20:38:33.429Z,974.8
2023-04-13T20:57:47.362Z,975.1
2023-04-13T21:17:00.661Z,975.4
2023-04-13T21:55:22.881Z,975.1
2023-04-13T22:14:34.599Z,975.3
2023-04-13T22:33:45.771Z,975.2
2023-04-13T22:52:58.031Z,975.3
2023-04-13T23:12:10.684Z,975.3
2023-04-13T23:31:22.941Z,975.2
2023-04-13T23:50:33.874Z,975.4
